Longdongbao Airport
ZUGY : now visible

Airfield :











YOU CAN JOIN US ON...

 
LOGIN :

Register | Disclaimer

   EN    FR    IT 

 









Legend :    VFR   Marginal VFR   IFR   Intensive IFR   Very Intensive IFR
Visi :
Ceiling :
>= 8 km
>= 3000ft
5 to 8 km
1000 to 3000 ft
1500m to 5 km
500 to 1000 ft
800 to 1500m
200 to 500 ft
< 800m
< 200 ft
Symbols :   Thunderstorms  Fog  Heavy snow  Heavy precipitations  Wind > 20 kt






- Airport Elevation : 3736 ft
- IATA code : KWE


ZUGY - Longdongbao

CURRENT METAR :
  • 120100Z VRB01MPS 6000 FEW016 OVC030 15/13 Q1018 NOSIG

EXPIRED METARs :
  • 120000Z VRB01MPS 6000 -RA FEW016 OVC030 15/13 Q1017 NOSIG
  • 112300Z 12001MPS 7000 SCT020 OVC033 15/13 Q1016 NOSIG

TAF TAF ZUGY
Valid from the 12 at 00:00 until the 13 at 00:00 UTC


111935Z 1200/1224 19004MPS 6000 FEW007 BKN015 OVC033 TX22/1207Z TN10/1222Z
BECMG 1213/1214 2500 -RA BR



MET'MAP, your aeronautical weather chart ! - Copyright ORBIFLY December 2007 - Disclaimer

ORBIFLY MET'MAP TEAM :

Programming & Development : Alexandra Zaïnal
Concept & Development : Baudouin d'Aumeries
Co-Development & Prog : Marc-Olivier Méhu
Technical & hardware support : Manuel Goepfert

Contact : metmap@orbifly.com




SOURCES & CREDITS :

   NOAA       Earth
Advisory